sensor_id;sensor_type;location;lat;lon;timestamp;pressure;altitude;pressure_sealevel;temperature;humidity
64230;BME280;50547;49.498;0.092;2023-02-19T00:01:13;1023.80;;;10.55;92.32
64230;BME280;50547;49.498;0.092;2023-02-19T00:03:46;1023.78;;;10.49;92.48
64230;BME280;50547;49.498;0.092;2023-02-19T00:06:16;1023.92;;;10.42;92.49
64230;BME280;50547;49.498;0.092;2023-02-19T00:08:45;1023.92;;;10.40;92.49
64230;BME280;50547;49.498;0.092;2023-02-19T00:11:16;1023.86;;;10.38;92.26
64230;BME280;50547;49.498;0.092;2023-02-19T00:13:47;1023.90;;;10.40;91.89
64230;BME280;50547;49.498;0.092;2023-02-19T00:16:18;1023.82;;;10.38;91.57
64230;BME280;50547;49.498;0.092;2023-02-19T00:18:48;1023.84;;;10.42;91.12
64230;BME280;50547;49.498;0.092;2023-02-19T00:21:18;1023.68;;;10.35;90.91
64230;BME280;50547;49.498;0.092;2023-02-19T00:23:48;1023.82;;;10.41;90.39
64230;BME280;50547;49.498;0.092;2023-02-19T00:26:17;1023.92;;;10.50;89.81
64230;BME280;50547;49.498;0.092;2023-02-19T00:28:48;1023.94;;;10.51;89.58
64230;BME280;50547;49.498;0.092;2023-02-19T00:31:20;1023.92;;;10.53;89.21
64230;BME280;50547;49.498;0.092;2023-02-19T00:33:51;1023.99;;;10.49;89.11
64230;BME280;50547;49.498;0.092;2023-02-19T00:36:22;1023.99;;;10.57;88.60
64230;BME280;50547;49.498;0.092;2023-02-19T00:38:51;1023.97;;;10.61;88.58
64230;BME280;50547;49.498;0.092;2023-02-19T00:41:22;1023.97;;;10.63;88.55
64230;BME280;50547;49.498;0.092;2023-02-19T00:43:53;1023.96;;;10.64;88.67
64230;BME280;50547;49.498;0.092;2023-02-19T00:46:24;1023.90;;;10.74;88.34
64230;BME280;50547;49.498;0.092;2023-02-19T00:48:55;1023.96;;;10.73;88.63
64230;BME280;50547;49.498;0.092;2023-02-19T00:51:25;1023.96;;;10.68;89.12
64230;BME280;50547;49.498;0.092;2023-02-19T00:53:54;1023.86;;;10.60;89.69
64230;BME280;50547;49.498;0.092;2023-02-19T00:56:23;1024.01;;;10.61;89.75
64230;BME280;50547;49.498;0.092;2023-02-19T00:58:52;1024.05;;;10.62;89.76
64230;BME280;50547;49.498;0.092;2023-02-19T01:01:21;1023.99;;;10.53;90.36
64230;BME280;50547;49.498;0.092;2023-02-19T01:03:50;1023.94;;;10.52;90.43
64230;BME280;50547;49.498;0.092;2023-02-19T01:06:20;1023.82;;;10.52;90.42
64230;BME280;50547;49.498;0.092;2023-02-19T01:08:49;1023.68;;;10.49;90.55
64230;BME280;50547;49.498;0.092;2023-02-19T01:11:18;1023.86;;;10.53;90.41
64230;BME280;50547;49.498;0.092;2023-02-19T01:13:47;1023.90;;;10.55;90.45
64230;BME280;50547;49.498;0.092;2023-02-19T01:16:18;1023.80;;;10.56;90.63
64230;BME280;50547;49.498;0.092;2023-02-19T01:18:48;1023.84;;;10.58;90.64
64230;BME280;50547;49.498;0.092;2023-02-19T01:21:19;1023.96;;;10.59;90.80
64230;BME280;50547;49.498;0.092;2023-02-19T01:23:49;1023.99;;;10.60;90.82
64230;BME280;50547;49.498;0.092;2023-02-19T01:26:20;1024.09;;;10.60;90.87
64230;BME280;50547;49.498;0.092;2023-02-19T01:28:50;1024.19;;;10.62;90.72
64230;BME280;50547;49.498;0.092;2023-02-19T01:31:20;1024.11;;;10.57;90.96
64230;BME280;50547;49.498;0.092;2023-02-19T01:33:52;1023.97;;;10.56;91.11
64230;BME280;50547;49.498;0.092;2023-02-19T01:36:21;1024.07;;;10.52;91.23
64230;BME280;50547;49.498;0.092;2023-02-19T01:38:50;1024.13;;;10.47;91.43
64230;BME280;50547;49.498;0.092;2023-02-19T01:41:21;1024.23;;;10.40;91.75
64230;BME280;50547;49.498;0.092;2023-02-19T01:44:00;1024.25;;;10.39;91.69
64230;BME280;50547;49.498;0.092;2023-02-19T01:46:31;1024.23;;;10.39;91.56
64230;BME280;50547;49.498;0.092;2023-02-19T01:49:03;1024.29;;;10.45;91.18
64230;BME280;50547;49.498;0.092;2023-02-19T01:51:35;1024.19;;;10.42;91.22
64230;BME280;50547;49.498;0.092;2023-02-19T01:54:08;1024.17;;;10.39;91.55
64230;BME280;50547;49.498;0.092;2023-02-19T01:56:40;1024.21;;;10.35;91.81
64230;BME280;50547;49.498;0.092;2023-02-19T01:59:11;1024.25;;;10.36;91.72
64230;BME280;50547;49.498;0.092;2023-02-19T02:01:40;1024.33;;;10.36;91.66
64230;BME280;50547;49.498;0.092;2023-02-19T02:04:11;1024.27;;;10.35;91.77
64230;BME280;50547;49.498;0.092;2023-02-19T02:06:45;1024.23;;;10.33;91.92
64230;BME280;50547;49.498;0.092;2023-02-19T02:09:17;1024.23;;;10.31;92.11
64230;BME280;50547;49.498;0.092;2023-02-19T02:11:49;1024.31;;;10.31;92.03
64230;BME280;50547;49.498;0.092;2023-02-19T02:14:22;1024.31;;;10.27;92.22
64230;BME280;50547;49.498;0.092;2023-02-19T02:16:58;1024.31;;;10.31;92.02
64230;BME280;50547;49.498;0.092;2023-02-19T02:19:52;1024.33;;;10.32;91.91
64230;BME280;50547;49.498;0.092;2023-02-19T02:22:27;1024.25;;;10.22;92.40
64230;BME280;50547;49.498;0.092;2023-02-19T02:25:13;1024.31;;;10.21;92.49
64230;BME280;50547;49.498;0.092;2023-02-19T02:27:52;1024.25;;;10.18;92.62
64230;BME280;50547;49.498;0.092;2023-02-19T02:30:32;1024.21;;;10.17;92.51
64230;BME280;50547;49.498;0.092;2023-02-19T02:33:12;1024.21;;;10.16;92.47
64230;BME280;50547;49.498;0.092;2023-02-19T02:35:47;1024.21;;;10.11;92.71
64230;BME280;50547;49.498;0.092;2023-02-19T02:38:21;1024.23;;;10.12;92.61
64230;BME280;50547;49.498;0.092;2023-02-19T02:40:52;1024.25;;;10.10;92.53
64230;BME280;50547;49.498;0.092;2023-02-19T02:43:23;1024.13;;;10.07;92.38
64230;BME280;50547;49.498;0.092;2023-02-19T02:45:52;1024.23;;;10.06;92.25
64230;BME280;50547;49.498;0.092;2023-02-19T02:48:28;1024.19;;;9.99;92.21
64230;BME280;50547;49.498;0.092;2023-02-19T02:51:02;1024.03;;;9.96;92.10
64230;BME280;50547;49.498;0.092;2023-02-19T02:53:42;1024.17;;;10.04;91.43
64230;BME280;50547;49.498;0.092;2023-02-19T02:56:15;1024.19;;;10.01;91.36
64230;BME280;50547;49.498;0.092;2023-02-19T02:58:47;1024.19;;;10.01;91.02
64230;BME280;50547;49.498;0.092;2023-02-19T03:01:20;1024.29;;;10.02;90.66
64230;BME280;50547;49.498;0.092;2023-02-19T03:03:56;1024.27;;;10.05;90.30
64230;BME280;50547;49.498;0.092;2023-02-19T03:06:30;1024.31;;;10.08;90.05
64230;BME280;50547;49.498;0.092;2023-02-19T03:09:08;1024.29;;;10.12;89.66
64230;BME280;50547;49.498;0.092;2023-02-19T03:11:40;1024.29;;;10.09;89.44
64230;BME280;50547;49.498;0.092;2023-02-19T03:14:15;1024.31;;;10.13;89.04
64230;BME280;50547;49.498;0.092;2023-02-19T03:16:47;1024.27;;;10.15;88.69
64230;BME280;50547;49.498;0.092;2023-02-19T03:19:19;1024.31;;;10.16;88.57
64230;BME280;50547;49.498;0.092;2023-02-19T03:21:53;1024.31;;;10.13;88.68
64230;BME280;50547;49.498;0.092;2023-02-19T03:24:27;1024.33;;;10.16;88.50
64230;BME280;50547;49.498;0.092;2023-02-19T03:26:58;1024.29;;;10.22;88.22
64230;BME280;50547;49.498;0.092;2023-02-19T03:29:31;1024.38;;;10.35;87.60
64230;BME280;50547;49.498;0.092;2023-02-19T03:32:05;1024.38;;;10.26;88.24
64230;BME280;50547;49.498;0.092;2023-02-19T03:34:40;1024.46;;;10.21;88.65
64230;BME280;50547;49.498;0.092;2023-02-19T03:37:13;1024.48;;;10.23;88.51
64230;BME280;50547;49.498;0.092;2023-02-19T03:39:42;1024.48;;;10.21;88.57
64230;BME280;50547;49.498;0.092;2023-02-19T03:42:19;1024.40;;;10.16;88.73
64230;BME280;50547;49.498;0.092;2023-02-19T03:44:59;1024.38;;;10.18;88.46
64230;BME280;50547;49.498;0.092;2023-02-19T03:47:33;1024.46;;;10.15;88.37
64230;BME280;50547;49.498;0.092;2023-02-19T03:50:16;1024.48;;;10.19;88.13
64230;BME280;50547;49.498;0.092;2023-02-19T03:52:53;1024.48;;;10.28;87.65
64230;BME280;50547;49.498;0.092;2023-02-19T03:55:30;1024.58;;;10.36;87.47
64230;BME280;50547;49.498;0.092;2023-02-19T03:58:07;1024.54;;;10.29;88.00
64230;BME280;50547;49.498;0.092;2023-02-19T04:00:40;1024.54;;;10.35;87.70
64230;BME280;50547;49.498;0.092;2023-02-19T04:03:18;1024.56;;;10.36;87.46
64230;BME280;50547;49.498;0.092;2023-02-19T04:05:52;1024.68;;;10.47;86.98
64230;BME280;50547;49.498;0.092;2023-02-19T04:08:23;1024.58;;;10.44;87.22
64230;BME280;50547;49.498;0.092;2023-02-19T04:10:53;1024.54;;;10.35;87.69
64230;BME280;50547;49.498;0.092;2023-02-19T04:13:25;1024.60;;;10.31;87.74
64230;BME280;50547;49.498;0.092;2023-02-19T04:15:59;1024.56;;;10.31;87.65
64230;BME280;50547;49.498;0.092;2023-02-19T04:18:33;1024.60;;;10.29;87.69
64230;BME280;50547;49.498;0.092;2023-02-19T04:21:05;1024.66;;;10.36;87.39
64230;BME280;50547;49.498;0.092;2023-02-19T04:23:38;1024.72;;;10.33;87.63
64230;BME280;50547;49.498;0.092;2023-02-19T04:26:10;1024.70;;;10.39;87.23
64230;BME280;50547;49.498;0.092;2023-02-19T04:28:40;1024.82;;;10.36;87.43
64230;BME280;50547;49.498;0.092;2023-02-19T04:31:10;1024.80;;;10.39;87.42
64230;BME280;50547;49.498;0.092;2023-02-19T04:33:39;1024.80;;;10.44;87.34
64230;BME280;50547;49.498;0.092;2023-02-19T04:36:09;1024.83;;;10.47;87.24
64230;BME280;50547;49.498;0.092;2023-02-19T04:38:39;1024.85;;;10.46;87.37
64230;BME280;50547;49.498;0.092;2023-02-19T04:41:08;1024.91;;;10.49;87.29
64230;BME280;50547;49.498;0.092;2023-02-19T04:43:37;1024.91;;;10.43;87.49
64230;BME280;50547;49.498;0.092;2023-02-19T04:46:06;1024.95;;;10.38;87.74
64230;BME280;50547;49.498;0.092;2023-02-19T04:48:35;1025.01;;;10.44;87.40
64230;BME280;50547;49.498;0.092;2023-02-19T04:51:05;1025.01;;;10.48;87.12
64230;BME280;50547;49.498;0.092;2023-02-19T04:53:34;1025.03;;;10.40;87.59
64230;BME280;50547;49.498;0.092;2023-02-19T04:56:05;1025.01;;;10.38;87.63
64230;BME280;50547;49.498;0.092;2023-02-19T04:58:34;1025.13;;;10.38;87.79
64230;BME280;50547;49.498;0.092;2023-02-19T05:01:04;1025.17;;;10.49;87.31
64230;BME280;50547;49.498;0.092;2023-02-19T05:03:30;1025.13;;;10.58;86.70
64230;BME280;50547;49.498;0.092;2023-02-19T05:06:01;1025.13;;;10.57;86.83
64230;BME280;50547;49.498;0.092;2023-02-19T05:08:30;1025.21;;;10.55;87.21
64230;BME280;50547;49.498;0.092;2023-02-19T05:11:00;1025.23;;;10.42;87.75
64230;BME280;50547;49.498;0.092;2023-02-19T05:13:30;1025.15;;;10.39;88.14
64230;BME280;50547;49.498;0.092;2023-02-19T05:16:00;1025.17;;;10.48;87.58
64230;BME280;50547;49.498;0.092;2023-02-19T05:18:30;1025.23;;;10.47;87.70
64230;BME280;50547;49.498;0.092;2023-02-19T05:21:00;1025.23;;;10.51;87.50
64230;BME280;50547;49.498;0.092;2023-02-19T05:23:30;1025.32;;;10.44;87.82
64230;BME280;50547;49.498;0.092;2023-02-19T05:26:04;1025.29;;;10.41;88.01
64230;BME280;50547;49.498;0.092;2023-02-19T05:28:30;1025.32;;;10.39;88.00
64230;BME280;50547;49.498;0.092;2023-02-19T05:31:03;1025.40;;;10.35;88.19
64230;BME280;50547;49.498;0.092;2023-02-19T05:33:33;1025.42;;;10.32;88.18
64230;BME280;50547;49.498;0.092;2023-02-19T05:36:05;1025.48;;;10.37;87.90
64230;BME280;50547;49.498;0.092;2023-02-19T05:38:36;1025.48;;;10.37;87.94
64230;BME280;50547;49.498;0.092;2023-02-19T05:41:10;1025.56;;;10.29;88.38
64230;BME280;50547;49.498;0.092;2023-02-19T05:43:42;1025.52;;;10.28;88.34
64230;BME280;50547;49.498;0.092;2023-02-19T05:46:13;1025.54;;;10.33;88.06
64230;BME280;50547;49.498;0.092;2023-02-19T05:48:42;1025.54;;;10.36;87.84
64230;BME280;50547;49.498;0.092;2023-02-19T05:51:13;1025.50;;;10.36;87.75
64230;BME280;50547;49.498;0.092;2023-02-19T05:53:44;1025.44;;;10.51;87.13
64230;BME280;50547;49.498;0.092;2023-02-19T05:56:24;1025.50;;;10.42;87.68
64230;BME280;50547;49.498;0.092;2023-02-19T05:58:54;1025.48;;;10.50;87.48
64230;BME280;50547;49.498;0.092;2023-02-19T06:01:26;1025.58;;;10.54;87.37
64230;BME280;50547;49.498;0.092;2023-02-19T06:03:56;1025.60;;;10.49;87.70
64230;BME280;50547;49.498;0.092;2023-02-19T06:06:22;1025.62;;;10.47;87.92
64230;BME280;50547;49.498;0.092;2023-02-19T06:08:52;1025.66;;;10.53;87.71
64230;BME280;50547;49.498;0.092;2023-02-19T06:11:22;1025.68;;;10.49;87.85
64230;BME280;50547;49.498;0.092;2023-02-19T06:13:51;1025.76;;;10.56;87.66
64230;BME280;50547;49.498;0.092;2023-02-19T06:16:21;1025.74;;;10.64;87.40
64230;BME280;50547;49.498;0.092;2023-02-19T06:18:50;1025.72;;;10.62;87.45
64230;BME280;50547;49.498;0.092;2023-02-19T06:21:19;1025.74;;;10.59;87.48
64230;BME280;50547;49.498;0.092;2023-02-19T06:23:48;1025.74;;;10.46;88.26
64230;BME280;50547;49.498;0.092;2023-02-19T06:26:19;1025.74;;;10.45;88.27
64230;BME280;50547;49.498;0.092;2023-02-19T06:28:50;1025.76;;;10.42;88.29
64230;BME280;50547;49.498;0.092;2023-02-19T06:31:21;1025.76;;;10.35;88.62
64230;BME280;50547;49.498;0.092;2023-02-19T06:33:50;1025.79;;;10.33;88.47
64230;BME280;50547;49.498;0.092;2023-02-19T06:36:20;1025.79;;;10.32;88.32
64230;BME280;50547;49.498;0.092;2023-02-19T06:38:49;1025.85;;;10.31;87.95
64230;BME280;50547;49.498;0.092;2023-02-19T06:41:19;1025.77;;;10.27;87.84
64230;BME280;50547;49.498;0.092;2023-02-19T06:43:48;1025.83;;;10.25;87.38
64230;BME280;50547;49.498;0.092;2023-02-19T06:46:17;1025.91;;;10.31;86.89
64230;BME280;50547;49.498;0.092;2023-02-19T06:48:46;1025.85;;;10.37;86.25
64230;BME280;50547;49.498;0.092;2023-02-19T06:51:16;1025.83;;;10.38;86.04
64230;BME280;50547;49.498;0.092;2023-02-19T06:53:46;1025.85;;;10.39;85.75
64230;BME280;50547;49.498;0.092;2023-02-19T06:56:24;1025.89;;;10.46;85.35
64230;BME280;50547;49.498;0.092;2023-02-19T06:58:56;1025.91;;;10.40;85.87
64230;BME280;50547;49.498;0.092;2023-02-19T07:01:26;1025.87;;;10.37;86.08
64230;BME280;50547;49.498;0.092;2023-02-19T07:03:55;1025.99;;;10.46;85.98
64230;BME280;50547;49.498;0.092;2023-02-19T07:06:25;1026.10;;;10.44;86.12
64230;BME280;50547;49.498;0.092;2023-02-19T07:08:56;1026.12;;;10.46;86.20
64230;BME280;50547;49.498;0.092;2023-02-19T07:11:29;1026.08;;;10.50;86.10
64230;BME280;50547;49.498;0.092;2023-02-19T07:14:00;1026.10;;;10.54;85.94
64230;BME280;50547;49.498;0.092;2023-02-19T07:16:30;1026.08;;;10.46;86.33
64230;BME280;50547;49.498;0.092;2023-02-19T07:18:59;1026.08;;;10.50;86.28
64230;BME280;50547;49.498;0.092;2023-02-19T07:21:29;1026.25;;;10.45;86.71
64230;BME280;50547;49.498;0.092;2023-02-19T07:23:58;1026.35;;;10.48;86.69
64230;BME280;50547;49.498;0.092;2023-02-19T07:26:27;1026.35;;;10.50;86.63
64230;BME280;50547;49.498;0.092;2023-02-19T07:28:56;1026.35;;;10.47;86.88
64230;BME280;50547;49.498;0.092;2023-02-19T07:31:25;1026.33;;;10.51;86.76
64230;BME280;50547;49.498;0.092;2023-02-19T07:33:54;1026.37;;;10.60;86.38
64230;BME280;50547;49.498;0.092;2023-02-19T07:36:23;1026.51;;;10.63;86.36
64230;BME280;50547;49.498;0.092;2023-02-19T07:38:53;1026.51;;;10.64;86.48
64230;BME280;50547;49.498;0.092;2023-02-19T07:41:23;1026.49;;;10.70;86.38
64230;BME280;50547;49.498;0.092;2023-02-19T07:43:53;1026.57;;;10.69;86.52
64230;BME280;50547;49.498;0.092;2023-02-19T07:46:22;1026.55;;;10.73;86.43
64230;BME280;50547;49.498;0.092;2023-02-19T07:48:51;1026.53;;;10.81;86.20
64230;BME280;50547;49.498;0.092;2023-02-19T07:51:20;1026.53;;;10.81;86.28
64230;BME280;50547;49.498;0.092;2023-02-19T07:53:49;1026.55;;;10.80;86.50
64230;BME280;50547;49.498;0.092;2023-02-19T07:56:19;1026.61;;;10.80;86.49
64230;BME280;50547;49.498;0.092;2023-02-19T07:58:48;1026.61;;;10.87;86.29
64230;BME280;50547;49.498;0.092;2023-02-19T08:01:19;1026.57;;;10.87;86.26
64230;BME280;50547;49.498;0.092;2023-02-19T08:03:48;1026.57;;;10.92;85.98
64230;BME280;50547;49.498;0.092;2023-02-19T08:06:17;1026.63;;;10.99;85.51
64230;BME280;50547;49.498;0.092;2023-02-19T08:08:46;1026.57;;;10.80;86.39
64230;BME280;50547;49.498;0.092;2023-02-19T08:11:16;1026.61;;;10.70;86.81
64230;BME280;50547;49.498;0.092;2023-02-19T08:13:47;1026.69;;;10.73;86.53
64230;BME280;50547;49.498;0.092;2023-02-19T08:16:17;1026.74;;;10.73;86.56
64230;BME280;50547;49.498;0.092;2023-02-19T08:18:47;1026.86;;;10.77;86.35
64230;BME280;50547;49.498;0.092;2023-02-19T08:21:16;1026.86;;;10.77;86.38
64230;BME280;50547;49.498;0.092;2023-02-19T08:23:45;1026.86;;;10.68;86.69
64230;BME280;50547;49.498;0.092;2023-02-19T08:26:14;1026.84;;;10.54;87.39
64230;BME280;50547;49.498;0.092;2023-02-19T08:28:43;1026.84;;;10.51;87.46
64230;BME280;50547;49.498;0.092;2023-02-19T08:31:12;1026.86;;;10.43;87.78
64230;BME280;50547;49.498;0.092;2023-02-19T08:33:41;1026.88;;;10.53;87.24
64230;BME280;50547;49.498;0.092;2023-02-19T08:36:10;1026.88;;;10.54;87.09
64230;BME280;50547;49.498;0.092;2023-02-19T08:38:39;1026.92;;;10.52;87.29
64230;BME280;50547;49.498;0.092;2023-02-19T08:41:09;1026.90;;;10.60;86.97
64230;BME280;50547;49.498;0.092;2023-02-19T08:43:39;1027.02;;;10.70;86.53
64230;BME280;50547;49.498;0.092;2023-02-19T08:46:10;1027.06;;;10.78;86.33
64230;BME280;50547;49.498;0.092;2023-02-19T08:48:37;1027.12;;;10.67;86.90
64230;BME280;50547;49.498;0.092;2023-02-19T08:51:07;1027.10;;;10.68;86.98
64230;BME280;50547;49.498;0.092;2023-02-19T08:53:39;1027.02;;;10.61;87.42
64230;BME280;50547;49.498;0.092;2023-02-19T08:56:10;1027.02;;;10.64;87.21
64230;BME280;50547;49.498;0.092;2023-02-19T08:58:39;1027.00;;;10.70;87.07
64230;BME280;50547;49.498;0.092;2023-02-19T09:01:09;1026.96;;;10.72;87.02
64230;BME280;50547;49.498;0.092;2023-02-19T09:03:39;1026.98;;;10.85;86.66
64230;BME280;50547;49.498;0.092;2023-02-19T09:06:13;1026.94;;;10.80;87.10
64230;BME280;50547;49.498;0.092;2023-02-19T09:08:42;1026.96;;;10.79;87.24
64230;BME280;50547;49.498;0.092;2023-02-19T09:11:11;1026.96;;;10.75;87.48
64230;BME280;50547;49.498;0.092;2023-02-19T09:13:41;1027.02;;;10.88;86.79
64230;BME280;50547;49.498;0.092;2023-02-19T09:16:10;1027.08;;;10.93;86.55
64230;BME280;50547;49.498;0.092;2023-02-19T09:18:39;1027.06;;;10.87;87.01
64230;BME280;50547;49.498;0.092;2023-02-19T09:21:08;1027.04;;;10.80;87.24
64230;BME280;50547;49.498;0.092;2023-02-19T09:23:37;1027.10;;;10.83;87.13
64230;BME280;50547;49.498;0.092;2023-02-19T09:26:06;1027.06;;;10.82;87.18
64230;BME280;50547;49.498;0.092;2023-02-19T09:28:36;1027.02;;;10.75;87.52
64230;BME280;50547;49.498;0.092;2023-02-19T09:31:03;1027.00;;;10.72;87.63
64230;BME280;50547;49.498;0.092;2023-02-19T09:33:32;1026.94;;;10.66;87.85
64230;BME280;50547;49.498;0.092;2023-02-19T09:35:58;1027.08;;;10.74;87.44
64230;BME280;50547;49.498;0.092;2023-02-19T09:38:25;1027.14;;;10.79;87.20
64230;BME280;50547;49.498;0.092;2023-02-19T09:40:55;1027.33;;;10.82;87.04
64230;BME280;50547;49.498;0.092;2023-02-19T09:43:36;1027.45;;;10.99;86.34
64230;BME280;50547;49.498;0.092;2023-02-19T09:46:11;1027.49;;;11.03;86.19
64230;BME280;50547;49.498;0.092;2023-02-19T09:48:45;1027.51;;;11.08;86.02
64230;BME280;50547;49.498;0.092;2023-02-19T09:51:14;1027.45;;;11.08;86.11
64230;BME280;50547;49.498;0.092;2023-02-19T09:53:48;1027.29;;;11.22;85.69
64230;BME280;50547;49.498;0.092;2023-02-19T09:56:18;1027.29;;;11.31;85.42
64230;BME280;50547;49.498;0.092;2023-02-19T09:58:49;1027.31;;;11.51;84.83
64230;BME280;50547;49.498;0.092;2023-02-19T10:01:21;1027.33;;;11.42;85.25
64230;BME280;50547;49.498;0.092;2023-02-19T10:03:52;1027.29;;;11.32;85.87
64230;BME280;50547;49.498;0.092;2023-02-19T10:06:22;1027.27;;;11.41;85.35
64230;BME280;50547;49.498;0.092;2023-02-19T10:08:55;1027.37;;;11.49;85.14
64230;BME280;50547;49.498;0.092;2023-02-19T10:11:27;1027.49;;;11.53;84.67
64230;BME280;50547;49.498;0.092;2023-02-19T10:14:03;1027.60;;;11.64;84.59
64230;BME280;50547;49.498;0.092;2023-02-19T10:16:44;1027.68;;;11.58;84.72
64230;BME280;50547;49.498;0.092;2023-02-19T10:19:14;1027.70;;;11.36;85.83
64230;BME280;50547;49.498;0.092;2023-02-19T10:21:44;1027.82;;;11.40;85.33
64230;BME280;50547;49.498;0.092;2023-02-19T10:24:19;1027.86;;;11.17;86.39
64230;BME280;50547;49.498;0.092;2023-02-19T10:26:52;1027.80;;;11.12;86.50
64230;BME280;50547;49.498;0.092;2023-02-19T10:29:21;1027.70;;;11.06;86.30
64230;BME280;50547;49.498;0.092;2023-02-19T10:32:11;1027.74;;;10.94;86.71
64230;BME280;50547;49.498;0.092;2023-02-19T10:34:40;1027.76;;;11.15;85.57
64230;BME280;50547;49.498;0.092;2023-02-19T10:37:13;1027.90;;;11.16;85.47
64230;BME280;50547;49.498;0.092;2023-02-19T10:39:44;1027.90;;;11.26;85.03
64230;BME280;50547;49.498;0.092;2023-02-19T10:42:17;1027.92;;;11.45;84.39
64230;BME280;50547;49.498;0.092;2023-02-19T10:44:50;1027.92;;;11.55;84.10
64230;BME280;50547;49.498;0.092;2023-02-19T10:47:23;1027.88;;;11.54;84.25
64230;BME280;50547;49.498;0.092;2023-02-19T10:49:55;1027.84;;;11.70;83.74
64230;BME280;50547;49.498;0.092;2023-02-19T10:52:27;1027.80;;;11.73;83.52
64230;BME280;50547;49.498;0.092;2023-02-19T10:55:14;1027.70;;;11.34;85.25
64230;BME280;50547;49.498;0.092;2023-02-19T10:57:44;1027.70;;;11.31;84.92
64230;BME280;50547;49.498;0.092;2023-02-19T11:00:20;1027.68;;;11.34;84.95
64230;BME280;50547;49.498;0.092;2023-02-19T11:03:12;1027.82;;;11.45;84.19
64230;BME280;50547;49.498;0.092;2023-02-19T11:05:51;1027.90;;;11.50;84.11
64230;BME280;50547;49.498;0.092;2023-02-19T11:08:22;1027.84;;;11.70;83.31
64230;BME280;50547;49.498;0.092;2023-02-19T11:10:52;1027.82;;;12.07;81.93
64230;BME280;50547;49.498;0.092;2023-02-19T11:13:26;1027.98;;;12.19;81.48
64230;BME280;50547;49.498;0.092;2023-02-19T11:15:57;1028.02;;;12.19;81.58
64230;BME280;50547;49.498;0.092;2023-02-19T11:18:29;1027.82;;;12.09;82.24
64230;BME280;50547;49.498;0.092;2023-02-19T11:21:00;1027.74;;;12.07;82.52
64230;BME280;50547;49.498;0.092;2023-02-19T11:23:31;1027.84;;;11.95;82.82
64230;BME280;50547;49.498;0.092;2023-02-19T11:26:04;1028.15;;;12.10;82.38
64230;BME280;50547;49.498;0.092;2023-02-19T11:28:36;1028.33;;;12.22;81.91
64230;BME280;50547;49.498;0.092;2023-02-19T11:31:20;1028.37;;;12.59;80.53
64230;BME280;50547;49.498;0.092;2023-02-19T11:33:55;1028.35;;;12.60;80.54
64230;BME280;50547;49.498;0.092;2023-02-19T11:36:27;1028.27;;;12.52;80.81
64230;BME280;50547;49.498;0.092;2023-02-19T11:38:58;1028.07;;;12.42;81.19
64230;BME280;50547;49.498;0.092;2023-02-19T11:41:47;1028.00;;;12.08;83.02
64230;BME280;50547;49.498;0.092;2023-02-19T11:44:30;1028.13;;;12.11;82.40
64230;BME280;50547;49.498;0.092;2023-02-19T11:47:28;1028.31;;;11.67;84.77
64230;BME280;50547;49.498;0.092;2023-02-19T11:50:04;1028.37;;;11.50;85.14
64230;BME280;50547;49.498;0.092;2023-02-19T11:52:41;1028.41;;;11.54;84.65
64230;BME280;50547;49.498;0.092;2023-02-19T11:55:20;1028.39;;;11.66;83.79
64230;BME280;50547;49.498;0.092;2023-02-19T11:58:01;1028.31;;;11.68;83.66
64230;BME280;50547;49.498;0.092;2023-02-19T12:00:40;1028.35;;;11.68;83.66
64230;BME280;50547;49.498;0.092;2023-02-19T12:06:00;1028.19;;;11.45;84.64
64230;BME280;50547;49.498;0.092;2023-02-19T12:08:49;1028.09;;;11.47;84.45
64230;BME280;50547;49.498;0.092;2023-02-19T12:11:34;1028.33;;;11.56;83.11
64230;BME280;50547;49.498;0.092;2023-02-19T12:14:22;1028.43;;;11.83;81.90
64230;BME280;50547;49.498;0.092;2023-02-19T12:17:03;1028.52;;;11.99;81.65
64230;BME280;50547;49.498;0.092;2023-02-19T12:19:46;1028.50;;;12.11;81.33
64230;BME280;50547;49.498;0.092;2023-02-19T12:22:26;1028.25;;;12.32;80.81
64230;BME280;50547;49.498;0.092;2023-02-19T12:25:13;1028.09;;;12.13;82.01
64230;BME280;50547;49.498;0.092;2023-02-19T12:27:54;1028.07;;;12.27;81.93
64230;BME280;50547;49.498;0.092;2023-02-19T12:30:45;1028.03;;;12.62;79.94
64230;BME280;50547;49.498;0.092;2023-02-19T12:33:39;1028.07;;;12.86;79.35
64230;BME280;50547;49.498;0.092;2023-02-19T12:36:20;1028.09;;;12.90;79.21
64230;BME280;50547;49.498;0.092;2023-02-19T12:38:59;1028.15;;;12.73;80.38
64230;BME280;50547;49.498;0.092;2023-02-19T12:41:37;1028.11;;;12.97;79.41
64230;BME280;50547;49.498;0.092;2023-02-19T12:44:12;1027.98;;;13.48;77.17
64230;BME280;50547;49.498;0.092;2023-02-19T12:46:47;1027.84;;;13.57;77.03
64230;BME280;50547;49.498;0.092;2023-02-19T12:49:23;1027.72;;;13.52;76.99
64230;BME280;50547;49.498;0.092;2023-02-19T12:51:58;1027.68;;;13.24;78.41
64230;BME280;50547;49.498;0.092;2023-02-19T12:54:32;1027.62;;;13.27;78.37
64230;BME280;50547;49.498;0.092;2023-02-19T12:57:05;1027.66;;;13.49;76.97
64230;BME280;50547;49.498;0.092;2023-02-19T12:59:40;1027.78;;;13.65;76.26
64230;BME280;50547;49.498;0.092;2023-02-19T13:02:17;1027.92;;;13.90;75.53
64230;BME280;50547;49.498;0.092;2023-02-19T13:04:55;1027.96;;;13.91;75.64
64230;BME280;50547;49.498;0.092;2023-02-19T13:07:34;1027.80;;;13.72;76.49
64230;BME280;50547;49.498;0.092;2023-02-19T13:10:14;1027.70;;;13.74;76.35
64230;BME280;50547;49.498;0.092;2023-02-19T13:12:47;1027.80;;;13.79;75.98
64230;BME280;50547;49.498;0.092;2023-02-19T13:15:21;1027.82;;;13.64;76.57
64230;BME280;50547;49.498;0.092;2023-02-19T13:17:54;1027.88;;;13.52;77.21
64230;BME280;50547;49.498;0.092;2023-02-19T13:20:30;1027.88;;;13.67;76.67
64230;BME280;50547;49.498;0.092;2023-02-19T13:23:05;1027.78;;;14.08;74.93
64230;BME280;50547;49.498;0.092;2023-02-19T13:25:50;1027.76;;;14.40;73.67
64230;BME280;50547;49.498;0.092;2023-02-19T13:28:39;1027.68;;;14.52;72.85
64230;BME280;50547;49.498;0.092;2023-02-19T13:31:22;1027.58;;;14.45;73.96
64230;BME280;50547;49.498;0.092;2023-02-19T13:34:02;1027.53;;;14.02;75.63
64230;BME280;50547;49.498;0.092;2023-02-19T13:36:36;1027.62;;;13.82;76.52
64230;BME280;50547;49.498;0.092;2023-02-19T13:39:05;1027.76;;;13.56;77.55
64230;BME280;50547;49.498;0.092;2023-02-19T13:41:39;1027.86;;;13.40;77.84